sensor_id;sensor_type;location;lat;lon;timestamp;pressure;altitude;pressure_sealevel;temperature;humidity
44138;BME280;29800;55.942;37.314;2023-01-28T00:01:14;100170.94;;;-0.08;68.35
44138;BME280;29800;55.942;37.314;2023-01-28T00:03:41;100170.44;;;-0.12;68.16
44138;BME280;29800;55.942;37.314;2023-01-28T00:06:10;100167.22;;;-0.07;68.32
44138;BME280;29800;55.942;37.314;2023-01-28T00:08:36;100174.66;;;-0.09;68.32
44138;BME280;29800;55.942;37.314;2023-01-28T00:11:05;100165.91;;;-0.11;68.70
44138;BME280;29800;55.942;37.314;2023-01-28T00:13:32;100164.22;;;-0.12;68.79
44138;BME280;29800;55.942;37.314;2023-01-28T00:16:01;100167.56;;;-0.10;68.96
44138;BME280;29800;55.942;37.314;2023-01-28T00:18:28;100164.03;;;-0.03;68.61
44138;BME280;29800;55.942;37.314;2023-01-28T00:21:11;100168.91;;;0.02;68.63
44138;BME280;29800;55.942;37.314;2023-01-28T00:23:38;100171.28;;;0.05;68.46
44138;BME280;29800;55.942;37.314;2023-01-28T00:26:09;100171.94;;;-0.01;68.19
44138;BME280;29800;55.942;37.314;2023-01-28T00:28:37;100177.16;;;-0.08;68.63
44138;BME280;29800;55.942;37.314;2023-01-28T00:31:14;100171.94;;;-0.01;68.28
44138;BME280;29800;55.942;37.314;2023-01-28T00:33:44;100169.94;;;-0.07;68.42
44138;BME280;29800;55.942;37.314;2023-01-28T00:36:13;100177.34;;;-0.09;68.54
44138;BME280;29800;55.942;37.314;2023-01-28T00:38:41;100169.25;;;-0.09;68.24
44138;BME280;29800;55.942;37.314;2023-01-28T00:41:14;100175.66;;;-0.10;68.39
44138;BME280;29800;55.942;37.314;2023-01-28T00:43:41;100169.09;;;-0.16;68.29
44138;BME280;29800;55.942;37.314;2023-01-28T00:46:09;100172.31;;;-0.21;68.33
44138;BME280;29800;55.942;37.314;2023-01-28T00:48:36;100170.78;;;-0.23;68.10
44138;BME280;29800;55.942;37.314;2023-01-28T00:51:03;100164.91;;;-0.27;68.17
44138;BME280;29800;55.942;37.314;2023-01-28T00:53:29;100170.09;;;-0.25;68.11
44138;BME280;29800;55.942;37.314;2023-01-28T00:55:56;100174.66;;;-0.26;68.39
44138;BME280;29800;55.942;37.314;2023-01-28T00:58:22;100180.38;;;-0.29;68.09
44138;BME280;29800;55.942;37.314;2023-01-28T01:00:52;100173.63;;;-0.33;68.03
44138;BME280;29800;55.942;37.314;2023-01-28T01:03:18;100178.03;;;-0.32;68.18
44138;BME280;29800;55.942;37.314;2023-01-28T01:05:45;100172.31;;;-0.37;67.99
44138;BME280;29800;55.942;37.314;2023-01-28T01:08:11;100173.81;;;-0.43;67.78
44138;BME280;29800;55.942;37.314;2023-01-28T01:10:38;100175.50;;;-0.42;67.86
44138;BME280;29800;55.942;37.314;2023-01-28T01:13:06;100170.94;;;-0.41;68.15
44138;BME280;29800;55.942;37.314;2023-01-28T01:15:34;100176.00;;;-0.46;67.91
44138;BME280;29800;55.942;37.314;2023-01-28T01:18:01;100168.25;;;-0.49;68.13
44138;BME280;29800;55.942;37.314;2023-01-28T01:20:28;100188.78;;;-0.48;67.65
44138;BME280;29800;55.942;37.314;2023-01-28T01:22:58;100179.53;;;-0.46;67.93
44138;BME280;29800;55.942;37.314;2023-01-28T01:25:25;100182.41;;;-0.47;67.60
44138;BME280;29800;55.942;37.314;2023-01-28T01:27:52;100187.09;;;-0.49;68.00
44138;BME280;29800;55.942;37.314;2023-01-28T01:30:18;100181.22;;;-0.53;67.83
44138;BME280;29800;55.942;37.314;2023-01-28T01:32:47;100177.69;;;-0.62;68.03
44138;BME280;29800;55.942;37.314;2023-01-28T01:35:13;100183.38;;;-0.73;68.49
44138;BME280;29800;55.942;37.314;2023-01-28T01:37:42;100181.34;;;-0.71;68.74
44138;BME280;29800;55.942;37.314;2023-01-28T01:40:10;100182.38;;;-0.80;68.64
44138;BME280;29800;55.942;37.314;2023-01-28T01:42:38;100182.38;;;-0.80;68.63
44138;BME280;29800;55.942;37.314;2023-01-28T01:45:06;100175.81;;;-0.78;68.66
44138;BME280;29800;55.942;37.314;2023-01-28T01:52:47;100181.84;;;-0.84;68.38
44138;BME280;29800;55.942;37.314;2023-01-28T01:55:18;100181.31;;;-0.87;68.77
44138;BME280;29800;55.942;37.314;2023-01-28T01:57:48;100176.81;;;-0.87;68.81
44138;BME280;29800;55.942;37.314;2023-01-28T02:00:17;100177.13;;;-0.90;68.58
44138;BME280;29800;55.942;37.314;2023-01-28T02:02:47;100175.78;;;-0.94;68.82
44138;BME280;29800;55.942;37.314;2023-01-28T02:05:17;100168.19;;;-0.99;68.69
44138;BME280;29800;55.942;37.314;2023-01-28T02:07:45;100175.75;;;-1.02;69.08
44138;BME280;29800;55.942;37.314;2023-01-28T02:10:12;100168.88;;;-1.05;69.16
44138;BME280;29800;55.942;37.314;2023-01-28T02:12:48;100174.91;;;-1.03;68.81
44138;BME280;29800;55.942;37.314;2023-01-28T02:15:19;100177.94;;;-0.98;69.00
44138;BME280;29800;55.942;37.314;2023-01-28T02:17:46;100186.34;;;-1.01;68.57
44138;BME280;29800;55.942;37.314;2023-01-28T02:20:23;100177.78;;;-0.96;69.00
44138;BME280;29800;55.942;37.314;2023-01-28T02:25:57;100190.41;;;-0.97;68.79
44138;BME280;29800;55.942;37.314;2023-01-28T02:28:58;100198.59;;;-1.06;69.01
44138;BME280;29800;55.942;37.314;2023-01-28T02:31:51;100199.94;;;-1.02;68.68
44138;BME280;29800;55.942;37.314;2023-01-28T02:39:44;100203.44;;;-1.10;68.81
44138;BME280;29800;55.942;37.314;2023-01-28T02:42:17;100207.94;;;-1.19;68.81
44138;BME280;29800;55.942;37.314;2023-01-28T02:44:45;100198.38;;;-1.21;69.17
44138;BME280;29800;55.942;37.314;2023-01-28T02:47:12;100209.63;;;-1.18;69.02
44138;BME280;29800;55.942;37.314;2023-01-28T02:49:58;100208.81;;;-1.10;69.09
44138;BME280;29800;55.942;37.314;2023-01-28T02:55:44;100207.31;;;-1.04;68.88
44138;BME280;29800;55.942;37.314;2023-01-28T03:01:14;100217.50;;;-1.24;69.27
44138;BME280;29800;55.942;37.314;2023-01-28T03:06:38;100213.16;;;-1.17;69.57
44138;BME280;29800;55.942;37.314;2023-01-28T03:09:08;100218.03;;;-1.21;69.25
44138;BME280;29800;55.942;37.314;2023-01-28T03:11:51;100216.47;;;-1.23;69.39
44138;BME280;29800;55.942;37.314;2023-01-28T03:14:38;100222.91;;;-1.16;69.31
44138;BME280;29800;55.942;37.314;2023-01-28T03:17:26;100229.63;;;-1.12;69.05
44138;BME280;29800;55.942;37.314;2023-01-28T03:20:14;100220.09;;;-1.06;69.08
44138;BME280;29800;55.942;37.314;2023-01-28T03:23:04;100220.59;;;-1.03;68.80
44138;BME280;29800;55.942;37.314;2023-01-28T03:25:54;100214.38;;;-1.03;68.75
44138;BME280;29800;55.942;37.314;2023-01-28T03:28:41;100208.50;;;-0.99;68.54
44138;BME280;29800;55.942;37.314;2023-01-28T03:31:28;100206.88;;;-0.83;68.44
44138;BME280;29800;55.942;37.314;2023-01-28T03:34:13;100202.34;;;-0.83;67.44
44138;BME280;29800;55.942;37.314;2023-01-28T03:36:58;100214.22;;;-0.94;67.65
44138;BME280;29800;55.942;37.314;2023-01-28T03:39:30;100213.38;;;-1.02;67.88
44138;BME280;29800;55.942;37.314;2023-01-28T03:42:08;100208.09;;;-1.20;68.31
44138;BME280;29800;55.942;37.314;2023-01-28T03:44:41;100207.56;;;-1.32;68.50
44138;BME280;29800;55.942;37.314;2023-01-28T03:47:20;100210.06;;;-1.39;68.82
44138;BME280;29800;55.942;37.314;2023-01-28T03:49:49;100208.16;;;-1.46;69.17
44138;BME280;29800;55.942;37.314;2023-01-28T03:52:21;100216.81;;;-1.61;69.26
44138;BME280;29800;55.942;37.314;2023-01-28T03:54:48;100219.56;;;-1.79;69.53
44138;BME280;29800;55.942;37.314;2023-01-28T03:57:16;100216.13;;;-1.89;69.65
44138;BME280;29800;55.942;37.314;2023-01-28T03:59:43;100206.69;;;-2.01;70.24
44138;BME280;29800;55.942;37.314;2023-01-28T04:02:11;100205.75;;;-2.10;70.23
44138;BME280;29800;55.942;37.314;2023-01-28T04:04:38;100215.13;;;-2.14;70.81
44138;BME280;29800;55.942;37.314;2023-01-28T04:07:06;100210.16;;;-2.27;70.97
44138;BME280;29800;55.942;37.314;2023-01-28T04:09:51;100204.38;;;-2.41;70.91
44138;BME280;29800;55.942;37.314;2023-01-28T04:12:36;100211.31;;;-2.48;71.27
44138;BME280;29800;55.942;37.314;2023-01-28T04:15:05;100207.88;;;-2.58;71.73
44138;BME280;29800;55.942;37.314;2023-01-28T04:17:46;100209.50;;;-2.65;71.79
44138;BME280;29800;55.942;37.314;2023-01-28T04:20:19;100211.09;;;-2.72;72.26
44138;BME280;29800;55.942;37.314;2023-01-28T04:22:45;100212.03;;;-2.82;72.16
44138;BME280;29800;55.942;37.314;2023-01-28T04:25:13;100221.63;;;-2.89;72.86
44138;BME280;29800;55.942;37.314;2023-01-28T04:27:39;100222.81;;;-2.91;73.36
44138;BME280;29800;55.942;37.314;2023-01-28T04:30:16;100217.06;;;-2.97;72.97
44138;BME280;29800;55.942;37.314;2023-01-28T04:33:03;100224.84;;;-3.03;72.93
44138;BME280;29800;55.942;37.314;2023-01-28T04:35:55;100212.75;;;-3.07;73.65
44138;BME280;29800;55.942;37.314;2023-01-28T04:38:35;100217.72;;;-3.12;73.69
44138;BME280;29800;55.942;37.314;2023-01-28T04:41:06;100219.00;;;-3.17;73.74
44138;BME280;29800;55.942;37.314;2023-01-28T04:43:34;100214.78;;;-3.19;74.36
44138;BME280;29800;55.942;37.314;2023-01-28T04:46:26;100221.56;;;-3.25;74.29
44138;BME280;29800;55.942;37.314;2023-01-28T04:49:09;100225.56;;;-3.29;74.42
44138;BME280;29800;55.942;37.314;2023-01-28T04:51:39;100236.56;;;-3.32;74.60
44138;BME280;29800;55.942;37.314;2023-01-28T04:54:20;100242.50;;;-3.38;74.53
44138;BME280;29800;55.942;37.314;2023-01-28T04:56:46;100241.25;;;-3.44;74.41
44138;BME280;29800;55.942;37.314;2023-01-28T04:59:12;100245.63;;;-3.53;74.64
44138;BME280;29800;55.942;37.314;2023-01-28T05:01:38;100245.63;;;-3.53;75.16
44138;BME280;29800;55.942;37.314;2023-01-28T05:04:05;100246.78;;;-3.55;75.03
44138;BME280;29800;55.942;37.314;2023-01-28T05:06:36;100251.59;;;-3.59;75.24
44138;BME280;29800;55.942;37.314;2023-01-28T05:09:09;100251.59;;;-3.59;75.09
44138;BME280;29800;55.942;37.314;2023-01-28T05:11:35;100256.69;;;-3.65;75.14
44138;BME280;29800;55.942;37.314;2023-01-28T05:14:03;100256.13;;;-3.69;75.13
44138;BME280;29800;55.942;37.314;2023-01-28T05:16:37;100253.75;;;-3.72;75.02
44138;BME280;29800;55.942;37.314;2023-01-28T05:19:03;100249.94;;;-3.70;75.34
44138;BME280;29800;55.942;37.314;2023-01-28T05:21:37;100253.16;;;-3.66;75.57
44138;BME280;29800;55.942;37.314;2023-01-28T05:24:08;100247.94;;;-3.67;75.24
44138;BME280;29800;55.942;37.314;2023-01-28T05:26:35;100244.44;;;-3.68;75.27
44138;BME280;29800;55.942;37.314;2023-01-28T05:29:02;100255.44;;;-3.71;75.32
44138;BME280;29800;55.942;37.314;2023-01-28T05:31:29;100253.91;;;-3.74;75.39
44138;BME280;29800;55.942;37.314;2023-01-28T05:33:55;100251.09;;;-3.72;75.52
44138;BME280;29800;55.942;37.314;2023-01-28T05:36:22;100247.69;;;-3.74;75.61
44138;BME280;29800;55.942;37.314;2023-01-28T05:38:48;100247.81;;;-3.76;75.48
44138;BME280;29800;55.942;37.314;2023-01-28T05:41:14;100253.31;;;-3.77;75.79
44138;BME280;29800;55.942;37.314;2023-01-28T05:43:42;100255.31;;;-3.79;75.65
44138;BME280;29800;55.942;37.314;2023-01-28T05:46:23;100260.66;;;-3.79;75.21
44138;BME280;29800;55.942;37.314;2023-01-28T05:49:06;100261.66;;;-3.80;75.45
44138;BME280;29800;55.942;37.314;2023-01-28T05:52:06;100262.09;;;-3.85;75.13
44138;BME280;29800;55.942;37.314;2023-01-28T05:54:33;100273.63;;;-3.84;75.57
44138;BME280;29800;55.942;37.314;2023-01-28T05:57:00;100270.81;;;-3.83;75.08
44138;BME280;29800;55.942;37.314;2023-01-28T05:59:27;100267.31;;;-3.83;75.53
44138;BME280;29800;55.942;37.314;2023-01-28T06:01:55;100273.34;;;-3.81;75.48
44138;BME280;29800;55.942;37.314;2023-01-28T06:04:21;100261.22;;;-3.85;75.94
44138;BME280;29800;55.942;37.314;2023-01-28T06:06:48;100264.34;;;-3.80;76.09
44138;BME280;29800;55.942;37.314;2023-01-28T06:09:14;100264.47;;;-3.72;75.82
44138;BME280;29800;55.942;37.314;2023-01-28T06:11:40;100264.13;;;-3.59;75.71
44138;BME280;29800;55.942;37.314;2023-01-28T06:14:06;100269.28;;;-3.48;75.91
44138;BME280;29800;55.942;37.314;2023-01-28T06:16:50;100265.75;;;-3.39;75.66
44138;BME280;29800;55.942;37.314;2023-01-28T06:19:34;100268.09;;;-3.26;75.17
44138;BME280;29800;55.942;37.314;2023-01-28T06:22:00;100277.22;;;-3.19;74.78
44138;BME280;29800;55.942;37.314;2023-01-28T06:24:26;100266.91;;;-3.14;74.18
44138;BME280;29800;55.942;37.314;2023-01-28T06:26:52;100270.53;;;-3.05;74.18
44138;BME280;29800;55.942;37.314;2023-01-28T06:29:19;100270.78;;;-2.98;73.96
44138;BME280;29800;55.942;37.314;2023-01-28T06:31:45;100277.75;;;-2.87;73.44
44138;BME280;29800;55.942;37.314;2023-01-28T06:34:11;100280.81;;;-2.82;73.15
44138;BME280;29800;55.942;37.314;2023-01-28T06:36:37;100281.41;;;-2.79;72.88
44138;BME280;29800;55.942;37.314;2023-01-28T06:39:04;100281.94;;;-2.75;72.66
44138;BME280;29800;55.942;37.314;2023-01-28T06:41:30;100284.47;;;-2.73;72.84
44138;BME280;29800;55.942;37.314;2023-01-28T06:43:56;100288.22;;;-2.66;72.45
44138;BME280;29800;55.942;37.314;2023-01-28T06:46:22;100285.78;;;-2.60;72.32
44138;BME280;29800;55.942;37.314;2023-01-28T06:48:49;100285.03;;;-2.52;72.28
44138;BME280;29800;55.942;37.314;2023-01-28T06:51:15;100290.47;;;-2.44;72.14
44138;BME280;29800;55.942;37.314;2023-01-28T06:53:41;100290.69;;;-2.37;71.43
44138;BME280;29800;55.942;37.314;2023-01-28T06:56:07;100282.50;;;-2.35;71.35
44138;BME280;29800;55.942;37.314;2023-01-28T06:58:34;100283.03;;;-2.32;71.24
44138;BME280;29800;55.942;37.314;2023-01-28T07:01:00;100288.94;;;-2.28;71.03
44138;BME280;29800;55.942;37.314;2023-01-28T07:03:27;100283.25;;;-2.25;70.68
44138;BME280;29800;55.942;37.314;2023-01-28T07:05:53;100285.63;;;-2.22;70.56
44138;BME280;29800;55.942;37.314;2023-01-28T07:08:19;100281.81;;;-2.19;70.38
44138;BME280;29800;55.942;37.314;2023-01-28T07:10:45;100282.66;;;-2.19;69.99
44138;BME280;29800;55.942;37.314;2023-01-28T07:13:11;100281.66;;;-2.18;69.57
44138;BME280;29800;55.942;37.314;2023-01-28T07:15:37;100280.13;;;-2.20;69.94
44138;BME280;29800;55.942;37.314;2023-01-28T07:18:03;100276.97;;;-2.16;70.04
44138;BME280;29800;55.942;37.314;2023-01-28T07:20:30;100273.13;;;-2.13;69.71
44138;BME280;29800;55.942;37.314;2023-01-28T07:22:56;100280.56;;;-2.07;69.43
44138;BME280;29800;55.942;37.314;2023-01-28T07:25:22;100278.03;;;-2.09;68.98
44138;BME280;29800;55.942;37.314;2023-01-28T07:27:50;100277.19;;;-2.09;69.25
44138;BME280;29800;55.942;37.314;2023-01-28T07:30:18;100274.38;;;-2.08;69.02
44138;BME280;29800;55.942;37.314;2023-01-28T07:32:45;100276.59;;;-2.03;69.17
44138;BME280;29800;55.942;37.314;2023-01-28T07:35:12;100268.06;;;-1.98;68.72
44138;BME280;29800;55.942;37.314;2023-01-28T07:37:38;100277.19;;;-1.91;68.67
44138;BME280;29800;55.942;37.314;2023-01-28T07:40:05;100270.50;;;-1.87;68.36
44138;BME280;29800;55.942;37.314;2023-01-28T07:42:31;100274.88;;;-1.86;68.73
44138;BME280;29800;55.942;37.314;2023-01-28T07:45:02;100282.59;;;-1.83;68.59
44138;BME280;29800;55.942;37.314;2023-01-28T07:47:29;100285.97;;;-1.81;68.41
44138;BME280;29800;55.942;37.314;2023-01-28T07:49:55;100277.31;;;-1.75;68.25
44138;BME280;29800;55.942;37.314;2023-01-28T07:52:22;100274.78;;;-1.76;67.88
44138;BME280;29800;55.942;37.314;2023-01-28T07:54:47;100288.72;;;-1.73;68.09
44138;BME280;29800;55.942;37.314;2023-01-28T07:57:14;100287.72;;;-1.72;67.58
44138;BME280;29800;55.942;37.314;2023-01-28T07:59:39;100282.50;;;-1.73;67.72
44138;BME280;29800;55.942;37.314;2023-01-28T08:02:10;100279.22;;;-1.67;67.67
44138;BME280;29800;55.942;37.314;2023-01-28T08:04:36;100279.38;;;-1.69;67.64
44138;BME280;29800;55.942;37.314;2023-01-28T08:07:05;100278.19;;;-1.66;67.58
44138;BME280;29800;55.942;37.314;2023-01-28T08:09:31;100282.09;;;-1.60;67.39
44138;BME280;29800;55.942;37.314;2023-01-28T08:12:00;100281.78;;;-1.57;67.21
44138;BME280;29800;55.942;37.314;2023-01-28T08:14:27;100278.94;;;-1.56;67.18
44138;BME280;29800;55.942;37.314;2023-01-28T08:16:53;100284.63;;;-1.59;66.79
44138;BME280;29800;55.942;37.314;2023-01-28T08:19:19;100278.09;;;-1.56;66.86
44138;BME280;29800;55.942;37.314;2023-01-28T08:21:46;100270.09;;;-1.48;67.01
44138;BME280;29800;55.942;37.314;2023-01-28T08:24:13;100271.47;;;-1.44;66.63
44138;BME280;29800;55.942;37.314;2023-01-28T08:26:39;100271.97;;;-1.40;66.40
44138;BME280;29800;55.942;37.314;2023-01-28T08:29:05;100270.81;;;-1.38;66.63
44138;BME280;29800;55.942;37.314;2023-01-28T08:31:31;100272.50;;;-1.37;66.35
44138;BME280;29800;55.942;37.314;2023-01-28T08:33:57;100275.84;;;-1.35;66.15
44138;BME280;29800;55.942;37.314;2023-01-28T08:36:23;100270.81;;;-1.38;65.92
44138;BME280;29800;55.942;37.314;2023-01-28T08:38:53;100270.81;;;-1.38;65.87
44138;BME280;29800;55.942;37.314;2023-01-28T08:41:22;100263.75;;;-1.39;65.73
44138;BME280;29800;55.942;37.314;2023-01-28T08:43:48;100266.59;;;-1.40;65.87
44138;BME280;29800;55.942;37.314;2023-01-28T08:46:14;100266.75;;;-1.42;65.63
44138;BME280;29800;55.942;37.314;2023-01-28T08:48:41;100265.22;;;-1.44;65.68
44138;BME280;29800;55.942;37.314;2023-01-28T08:51:07;100264.91;;;-1.41;65.91
44138;BME280;29800;55.942;37.314;2023-01-28T08:53:34;100260.41;;;-1.41;65.84
44138;BME280;29800;55.942;37.314;2023-01-28T08:55:59;100263.97;;;-1.32;65.87
44138;BME280;29800;55.942;37.314;2023-01-28T08:58:26;100265.97;;;-1.34;65.52
44138;BME280;29800;55.942;37.314;2023-01-28T09:00:52;100262.28;;;-1.33;65.54
44138;BME280;29800;55.942;37.314;2023-01-28T09:03:18;100263.13;;;-1.33;65.38
44138;BME280;29800;55.942;37.314;2023-01-28T09:05:44;100256.06;;;-1.34;65.37
44138;BME280;29800;55.942;37.314;2023-01-28T09:08:12;100266.50;;;-1.31;65.31
44138;BME280;29800;55.942;37.314;2023-01-28T09:10:38;100253.75;;;-1.28;65.43
44138;BME280;29800;55.942;37.314;2023-01-28T09:13:07;100253.41;;;-1.25;65.26
44138;BME280;29800;55.942;37.314;2023-01-28T09:15:34;100252.06;;;-1.30;65.31
44138;BME280;29800;55.942;37.314;2023-01-28T09:18:00;100254.91;;;-1.31;65.38
44138;BME280;29800;55.942;37.314;2023-01-28T09:20:26;100250.22;;;-1.29;65.68
44138;BME280;29800;55.942;37.314;2023-01-28T09:22:52;100253.06;;;-1.31;65.43
44138;BME280;29800;55.942;37.314;2023-01-28T09:25:19;100245.00;;;-1.31;65.34
44138;BME280;29800;55.942;37.314;2023-01-28T09:27:45;100254.06;;;-1.32;65.26
44138;BME280;29800;55.942;37.314;2023-01-28T09:30:11;100248.84;;;-1.33;65.44
44138;BME280;29800;55.942;37.314;2023-01-28T09:32:38;100248.69;;;-1.32;65.79
44138;BME280;29800;55.942;37.314;2023-01-28T09:35:05;100246.16;;;-1.33;65.26
44138;BME280;29800;55.942;37.314;2023-01-28T09:37:32;100254.91;;;-1.31;65.05
44138;BME280;29800;55.942;37.314;2023-01-28T09:39:58;100250.38;;;-1.31;64.95
44138;BME280;29800;55.942;37.314;2023-01-28T09:47:46;100235.59;;;-1.26;65.04
44138;BME280;29800;55.942;37.314;2023-01-28T09:50:30;100239.00;;;-1.24;65.09
44138;BME280;29800;55.942;37.314;2023-01-28T09:53:04;100237.97;;;-1.23;64.67
44138;BME280;29800;55.942;37.314;2023-01-28T09:55:35;100230.63;;;-1.21;65.06
44138;BME280;29800;55.942;37.314;2023-01-28T09:58:05;100236.00;;;-1.21;64.74
44138;BME280;29800;55.942;37.314;2023-01-28T10:03:19;100233.63;;;-1.24;65.63
44138;BME280;29800;55.942;37.314;2023-01-28T10:11:49;100220.94;;;-1.06;65.54
44138;BME280;29800;55.942;37.314;2023-01-28T10:17:15;100217.44;;;-0.98;65.00
44138;BME280;29800;55.942;37.314;2023-01-28T10:19:47;100224.47;;;-0.97;64.90
44138;BME280;29800;55.942;37.314;2023-01-28T10:22:19;100223.63;;;-0.98;64.53
44138;BME280;29800;55.942;37.314;2023-01-28T10:24:57;100211.22;;;-0.90;64.76
44138;BME280;29800;55.942;37.314;2023-01-28T10:27:32;100200.31;;;-0.89;64.78
44138;BME280;29800;55.942;37.314;2023-01-28T10:30:18;100205.22;;;-0.76;64.26
44138;BME280;29800;55.942;37.314;2023-01-28T10:35:14;100196.81;;;-0.65;63.36
44138;BME280;29800;55.942;37.314;2023-01-28T10:37:40;100199.84;;;-0.60;63.63
44138;BME280;29800;55.942;37.314;2023-01-28T10:40:16;100200.53;;;-0.49;63.23
44138;BME280;29800;55.942;37.314;2023-01-28T10:42:43;100197.84;;;-0.41;63.46
44138;BME280;29800;55.942;37.314;2023-01-28T10:45:33;100194.16;;;-0.24;63.23
44138;BME280;29800;55.942;37.314;2023-01-28T10:48:22;100188.09;;;-0.17;62.81
44138;BME280;29800;55.942;37.314;2023-01-28T10:50:58;100191.78;;;-0.10;62.56
44138;BME280;29800;55.942;37.314;2023-01-28T10:53:43;100180.50;;;0.03;62.41
44138;BME280;29800;55.942;37.314;2023-01-28T10:56:15;100189.41;;;0.03;62.51
44138;BME280;29800;55.942;37.314;2023-01-28T10:59:05;100181.47;;;0.18;61.81
44138;BME280;29800;55.942;37.314;2023-01-28T11:01:51;100184.34;;;0.25;61.37
44138;BME280;29800;55.942;37.314;2023-01-28T11:04:25;100178.03;;;0.49;62.34
44138;BME280;29800;55.942;37.314;2023-01-28T11:07:18;100181.63;;;0.41;61.26
44138;BME280;29800;55.942;37.314;2023-01-28T11:09:47;100182.97;;;0.29;61.24
44138;BME280;29800;55.942;37.314;2023-01-28T11:12:25;100180.25;;;0.37;60.18
44138;BME280;29800;55.942;37.314;2023-01-28T11:14:59;100180.91;;;0.39;61.04
44138;BME280;29800;55.942;37.314;2023-01-28T11:17:29;100175.22;;;0.34;60.37
44138;BME280;29800;55.942;37.314;2023-01-28T11:19:59;100175.06;;;0.35;60.57
44138;BME280;29800;55.942;37.314;2023-01-28T11:22:32;100173.16;;;0.44;60.69
44138;BME280;29800;55.942;37.314;2023-01-28T11:25:03;100171.47;;;0.51;60.60
44138;BME280;29800;55.942;37.314;2023-01-28T11:27:31;100165.00;;;0.61;60.51
44138;BME280;29800;55.942;37.314;2023-01-28T11:30:00;100161.31;;;0.62;60.06
44138;BME280;29800;55.942;37.314;2023-01-28T11:32:30;100153.59;;;0.59;59.61
44138;BME280;29800;55.942;37.314;2023-01-28T11:34:57;100150.53;;;0.62;59.21
44138;BME280;29800;55.942;37.314;2023-01-28T11:37:25;100145.13;;;0.70;59.81
44138;BME280;29800;55.942;37.314;2023-01-28T11:40:17;100143.53;;;0.84;59.42
44138;BME280;29800;55.942;37.314;2023-01-28T11:42:46;100136.63;;;0.81;58.91
44138;BME280;29800;55.942;37.314;2023-01-28T11:45:26;100133.72;;;0.91;58.48
44138;BME280;29800;55.942;37.314;2023-01-28T11:51:02;100128.31;;;0.91;58.24
44138;BME280;29800;55.942;37.314;2023-01-28T11:53:47;100128.31;;;0.91;58.42
44138;BME280;29800;55.942;37.314;2023-01-28T12:04:52;100127.63;;;0.97;59.01
44138;BME280;29800;55.942;37.314;2023-01-28T12:21:31;100119.31;;;1.07;57.65
44138;BME280;29800;55.942;37.314;2023-01-28T12:24:13;100118.28;;;1.08;58.13
44138;BME280;29800;55.942;37.314;2023-01-28T12:27:00;100116.25;;;1.10;58.41
44138;BME280;29800;55.942;37.314;2023-01-28T12:29:46;100107.13;;;1.11;58.38
44138;BME280;29800;55.942;37.314;2023-01-28T12:35:34;100097.19;;;1.12;57.76
44138;BME280;29800;55.942;37.314;2023-01-28T12:40:58;100092.59;;;0.97;58.05
44138;BME280;29800;55.942;37.314;2023-01-28T12:43:45;100088.78;;;1.06;58.55
44138;BME280;29800;55.942;37.314;2023-01-28T12:51:35;100087.38;;;0.96;58.08
44138;BME280;29800;55.942;37.314;2023-01-28T12:57:11;100085.84;;;0.93;57.64
44138;BME280;29800;55.942;37.314;2023-01-28T12:59:50;100082.63;;;0.98;57.93
44138;BME280;29800;55.942;37.314;2023-01-28T13:02:24;100090.72;;;0.98;58.02
44138;BME280;29800;55.942;37.314;2023-01-28T13:04:59;100099.97;;;0.95;58.26
44138;BME280;29800;55.942;37.314;2023-01-28T13:07:54;100095.03;;;1.07;58.10
44138;BME280;29800;55.942;37.314;2023-01-28T13:10:35;100088.63;;;1.08;57.80
44138;BME280;29800;55.942;37.314;2023-01-28T13:13:04;100086.66;;;1.02;57.38
44138;BME280;29800;55.942;37.314;2023-01-28T13:15:31;100082.94;;;1.03;57.90
44138;BME280;29800;55.942;37.314;2023-01-28T13:18:03;100094.41;;;0.97;57.85
44138;BME280;29800;55.942;37.314;2023-01-28T13:20:50;100087.50;;;1.02;58.05
44138;BME280;29800;55.942;37.314;2023-01-28T13:28:49;100085.19;;;0.91;57.99
44138;BME280;29800;55.942;37.314;2023-01-28T13:31:19;100082.69;;;0.89;57.99
44138;BME280;29800;55.942;37.314;2023-01-28T13:33:59;100086.78;;;0.85;58.39
44138;BME280;29800;55.942;37.314;2023-01-28T13:36:43;100078.41;;;0.95;58.38
44138;BME280;29800;55.942;37.314;2023-01-28T13:44:26;100081.00;;;0.88;58.63
44138;BME280;29800;55.942;37.314;2023-01-28T13:46:58;100070.09;;;0.82;57.73
44138;BME280;29800;55.942;37.314;2023-01-28T13:49:40;100075.44;;;0.90;58.13
44138;BME280;29800;55.942;37.314;2023-01-28T13:54:51;100060.13;;;0.90;58.56
44138;BME280;29800;55.942;37.314;2023-01-28T14:13:46;100049.28;;;0.99;57.81
44138;BME280;29800;55.942;37.314;2023-01-28T14:19:01;100049.63;;;0.96;58.16
44138;BME280;29800;55.942;37.314;2023-01-28T14:21:31;100056.69;;;0.97;57.60
44138;BME280;29800;55.942;37.314;2023-01-28T14:23:59;100052.97;;;0.98;57.51
44138;BME280;29800;55.942;37.314;2023-01-28T14:26:44;100056.44;;;1.06;57.35
44138;BME280;29800;55.942;37.314;2023-01-28T14:32:25;100051.16;;;1.13;57.15
44138;BME280;29800;55.942;37.314;2023-01-28T14:34:54;100042.78;;;1.08;57.88
44138;BME280;29800;55.942;37.314;2023-01-28T14:37:24;100046.50;;;1.07;57.23
44138;BME280;29800;55.942;37.314;2023-01-28T14:40:00;100037.03;;;1.11;57.34
44138;BME280;29800;55.942;37.314;2023-01-28T14:42:40;100036.38;;;1.09;57.63
44138;BME280;29800;55.942;37.314;2023-01-28T14:58:29;100041.66;;;1.02;57.91
44138;BME280;29800;55.942;37.314;2023-01-28T15:00:59;100036.44;;;1.01;57.97
44138;BME280;29800;55.942;37.314;2023-01-28T15:03:27;100031.53;;;1.04;57.42
44138;BME280;29800;55.942;37.314;2023-01-28T15:06:14;100039.44;;;1.06;57.75
44138;BME280;29800;55.942;37.314;2023-01-28T15:08:40;100039.78;;;1.03;57.68
44138;BME280;29800;55.942;37.314;2023-01-28T15:11:09;100042.13;;;1.06;57.71
44138;BME280;29800;55.942;37.314;2023-01-28T15:13:43;100039.44;;;1.06;58.11
44138;BME280;29800;55.942;37.314;2023-01-28T15:16:23;100043.28;;;1.12;57.71